TimeEST,TemperatureF,Dew PointF,Humidity,Sea Level PressureIn,VisibilityMPH,Wind Direction,Wind SpeedMPH,Gust SpeedMPH,PrecipitationIn,Events,Conditions,WindDirDegrees,DateUTC
12:58 AM,32.9,27.0,79,30.30,10.0,Calm,Calm,-,N/A,,Clear,0,2013-12-19 05:58:00
1:58 AM,32.9,27.7,81,30.30,10.0,SW,2.3,-,N/A,,Clear,230,2013-12-19 06:58:00
2:58 AM,33.3,29.1,85,30.32,10.0,Calm,Calm,-,N/A,,Clear,0,2013-12-19 07:58:00
3:58 AM,31.1,26.4,83,30.32,10.0,Calm,Calm,-,N/A,,Clear,0,2013-12-19 08:58:00
4:58 AM,28.2,24.8,87,30.32,10.0,Calm,Calm,-,N/A,,Clear,0,2013-12-19 09:58:00
5:58 AM,30.4,26.4,85,30.33,10.0,Calm,Calm,-,N/A,,Clear,0,2013-12-19 10:58:00
6:58 AM,30.4,28.0,91,30.33,10.0,Calm,Calm,-,N/A,,Clear,0,2013-12-19 11:58:00
7:58 AM,30.6,26.2,84,30.34,10.0,Calm,Calm,-,N/A,,Clear,0,2013-12-19 12:58:00
8:58 AM,40.8,34.7,79,30.35,10.0,Calm,Calm,-,N/A,,Clear,0,2013-12-19 13:58:00
9:58 AM,50.9,28.2,42,30.36,10.0,SSW,6.9,-,N/A,,Clear,210,2013-12-19 14:58:00
10:58 AM,54.9,27.0,34,30.36,10.0,WSW,8.1,-,N/A,,Clear,240,2013-12-19 15:58:00
11:58 AM,57.6,25.7,29,30.34,10.0,South,5.8,-,N/A,,Clear,180,2013-12-19 16:58:00
12:58 PM,60.3,26.2,27,30.30,10.0,SW,6.9,-,N/A,,Clear,220,2013-12-19 17:58:00
1:58 PM,63.0,25.2,24,30.27,10.0,SSW,9.2,-,N/A,,Scattered Clouds,200,2013-12-19 18:58:00
2:58 PM,62.6,26.4,25,30.26,10.0,South,9.2,-,N/A,,Clear,190,2013-12-19 19:58:00
3:58 PM,61.7,27.7,28,30.26,10.0,SSW,8.1,-,N/A,,Clear,200,2013-12-19 20:58:00
4:58 PM,57.0,31.1,37,30.26,10.0,South,5.8,-,N/A,,Clear,180,2013-12-19 21:58:00
5:58 PM,52.7,32.7,47,30.26,10.0,Calm,Calm,-,N/A,,Clear,0,2013-12-19 22:58:00
6:58 PM,49.1,35.1,58,30.28,10.0,Calm,Calm,-,N/A,,Clear,0,2013-12-19 23:58:00
7:58 PM,44.1,34.2,68,30.28,10.0,Calm,Calm,-,N/A,,Clear,0,2013-12-20 00:58:00
8:58 PM,43.7,34.5,70,30.27,10.0,Calm,Calm,-,N/A,,Clear,0,2013-12-20 01:58:00
9:58 PM,44.8,36.1,72,30.27,10.0,Calm,Calm,-,N/A,,Clear,0,2013-12-20 02:58:00
10:58 PM,41.4,34.5,77,30.26,10.0,Calm,Calm,-,N/A,,Clear,0,2013-12-20 03:58:00
11:58 PM,43.0,36.5,78,30.25,10.0,Calm,Calm,-,N/A,,Mostly Cloudy,0,2013-12-20 04:58:00